Time;durP1;ratioP1;P1;durP2;ratioP2;P2;SDS_P1;SDS_P2;PMS_P1;PMS_P2;Temp;Humidity;BMP_temperature;BMP_pressure;BME280_temperature;BME280_humidity;BME280_pressure;Samples;Min_cycle;Max_cycle;Signal;HPM_P1;HPM_P2
2021/10/10 00:01:55;;;;;;;37.60;16.70;;;6.60;99.90;;;;;;5019291;28;20030;-72
2021/10/10 00:04:21;;;;;;;36.05;15.40;;;6.60;99.90;;;;;;5017871;28;20034;-74
2021/10/10 00:06:48;;;;;;;41.53;17.98;;;6.60;99.90;;;;;;5017973;28;20021;-73
2021/10/10 00:09:13;;;;;;;37.17;16.98;;;6.60;99.90;;;;;;5015561;28;20081;-73
2021/10/10 00:11:39;;;;;;;33.60;15.90;;;6.60;99.90;;;;;;5018652;28;20101;-74
2021/10/10 00:14:05;;;;;;;36.58;16.38;;;6.50;99.90;;;;;;5015855;28;20482;-73
2021/10/10 00:16:30;;;;;;;36.00;15.80;;;6.40;99.90;;;;;;5019580;28;20026;-73
2021/10/10 00:18:57;;;;;;;37.45;16.00;;;6.40;99.90;;;;;;5018421;28;20038;-73
2021/10/10 00:21:22;;;;;;;36.17;16.30;;;6.50;99.90;;;;;;5017123;28;20029;-73
2021/10/10 00:23:48;;;;;;;39.15;15.27;;;6.40;99.90;;;;;;5019000;28;20030;-73
2021/10/10 00:26:14;;;;;;;31.70;15.05;;;6.40;99.90;;;;;;5018666;28;20108;-73
2021/10/10 00:28:39;;;;;;;38.42;15.43;;;6.40;99.90;;;;;;5018382;28;20026;-73
2021/10/10 00:31:05;;;;;;;36.50;15.02;;;6.30;99.90;;;;;;5017331;28;20310;-73
2021/10/10 00:33:30;;;;;;;27.83;13.70;;;6.30;99.90;;;;;;5006802;28;20054;-73
2021/10/10 00:35:56;;;;;;;27.02;12.88;;;6.30;99.90;;;;;;5019443;28;20037;-73
2021/10/10 00:38:21;;;;;;;32.20;13.77;;;6.30;99.90;;;;;;5013327;28;20061;-73
2021/10/10 00:40:47;;;;;;;29.25;12.50;;;6.20;99.90;;;;;;5007606;28;20061;-74
2021/10/10 00:43:13;;;;;;;24.65;11.93;;;6.20;99.90;;;;;;5000192;28;20030;-73
2021/10/10 00:45:45;;;;;;;24.58;11.68;;;6.20;99.90;;;;;;5001452;28;20023;-72
2021/10/10 00:48:12;;;;;;;25.95;11.68;;;6.20;99.90;;;;;;5000597;28;20030;-72
2021/10/10 00:50:37;;;;;;;29.25;13.07;;;6.10;99.90;;;;;;5012270;28;20101;-72
2021/10/10 00:53:04;;;;;;;33.42;13.45;;;6.00;99.90;;;;;;5019780;28;20057;-72
2021/10/10 00:55:32;;;;;;;30.25;13.48;;;6.00;99.90;;;;;;5019602;28;20018;-72
2021/10/10 00:57:58;;;;;;;32.40;14.63;;;6.00;99.90;;;;;;5020034;28;20419;-72
2021/10/10 01:00:24;;;;;;;30.63;13.48;;;6.00;99.90;;;;;;5020467;28;20622;-73
2021/10/10 01:02:55;;;;;;;32.28;14.40;;;6.00;99.90;;;;;;5019596;28;20433;-73
2021/10/10 01:05:20;;;;;;;32.95;14.88;;;6.00;99.90;;;;;;5020698;28;20053;-74
2021/10/10 01:07:49;;;;;;;33.30;14.57;;;6.00;99.90;;;;;;5020009;28;20029;-73
2021/10/10 01:10:15;;;;;;;34.20;13.80;;;6.00;99.90;;;;;;5020616;28;20018;-73
2021/10/10 01:12:44;;;;;;;33.20;15.05;;;6.00;99.90;;;;;;5019244;28;20029;-73
2021/10/10 01:15:11;;;;;;;31.30;14.13;;;6.00;99.90;;;;;;5019956;28;20049;-73
2021/10/10 01:17:38;;;;;;;33.00;14.05;;;5.90;99.90;;;;;;5018558;28;20033;-78
2021/10/10 01:20:05;;;;;;;29.05;12.82;;;5.90;99.90;;;;;;5018542;28;20370;-78
2021/10/10 01:22:31;;;;;;;27.20;13.27;;;5.90;99.90;;;;;;5018636;28;20399;-79
2021/10/10 01:24:57;;;;;;;28.83;12.77;;;5.90;99.90;;;;;;5018633;28;20029;-78
2021/10/10 01:27:23;;;;;;;28.20;13.00;;;5.90;99.90;;;;;;5018588;28;20036;-78
2021/10/10 01:29:49;;;;;;;30.75;13.88;;;5.90;99.90;;;;;;5018419;28;20022;-78
2021/10/10 01:32:14;;;;;;;32.88;13.52;;;5.80;99.90;;;;;;5017643;28;20030;-78
2021/10/10 01:34:47;;;;;;;30.45;13.20;;;5.80;99.90;;;;;;5018314;28;20018;-78
2021/10/10 01:37:14;;;;;;;26.77;12.55;;;5.80;99.90;;;;;;5018830;28;20029;-78
2021/10/10 01:39:39;;;;;;;29.60;12.98;;;5.80;99.90;;;;;;5018536;28;20067;-78
2021/10/10 01:42:05;;;;;;;26.15;11.68;;;5.80;99.90;;;;;;5018712;28;20425;-78
2021/10/10 01:44:31;;;;;;;33.55;13.48;;;5.80;99.90;;;;;;5018279;28;20127;-78
2021/10/10 01:46:57;;;;;;;29.30;12.38;;;5.70;99.90;;;;;;5016927;28;20511;-78
2021/10/10 01:49:23;;;;;;;30.00;11.45;;;5.70;99.90;;;;;;5018295;28;20127;-78
2021/10/10 01:51:49;;;;;;;28.10;11.98;;;5.70;99.90;;;;;;5018191;28;20018;-78
2021/10/10 01:54:15;;;;;;;27.30;11.88;;;5.70;99.90;;;;;;5017646;28;20018;-78
2021/10/10 01:56:41;;;;;;;29.33;12.18;;;5.60;99.90;;;;;;5019492;28;20018;-78
2021/10/10 01:59:06;;;;;;;27.88;12.40;;;5.60;99.90;;;;;;5019570;28;20054;-78
2021/10/10 02:01:32;;;;;;;28.40;12.57;;;5.60;99.90;;;;;;5019379;28;20049;-77
2021/10/10 02:03:58;;;;;;;28.23;12.98;;;5.60;99.90;;;;;;5020113;28;20026;-78
2021/10/10 02:06:24;;;;;;;29.67;12.23;;;5.60;99.90;;;;;;5019641;28;20064;-78
2021/10/10 02:08:49;;;;;;;30.63;12.55;;;5.60;99.90;;;;;;5017610;28;20026;-78
2021/10/10 02:11:15;;;;;;;34.65;12.52;;;5.50;99.90;;;;;;5017950;28;20026;-77
2021/10/10 02:13:41;;;;;;;28.75;12.77;;;5.50;99.90;;;;;;5018126;28;20048;-77
2021/10/10 02:16:07;;;;;;;29.35;12.80;;;5.50;99.90;;;;;;5016779;28;20018;-77
2021/10/10 02:18:32;;;;;;;31.25;11.88;;;5.50;99.90;;;;;;5018360;28;20018;-77
2021/10/10 02:20:58;;;;;;;27.42;12.45;;;5.60;99.90;;;;;;5017483;28;20022;-77
2021/10/10 02:23:25;;;;;;;26.58;12.23;;;5.50;99.90;;;;;;5018393;28;20077;-77
2021/10/10 02:25:50;;;;;;;26.30;11.65;;;5.50;99.90;;;;;;5018573;28;20056;-77
2021/10/10 02:28:16;;;;;;;32.40;13.90;;;5.50;99.90;;;;;;5017338;28;20030;-77
2021/10/10 02:30:41;;;;;;;32.72;12.95;;;5.50;99.90;;;;;;5018891;28;20037;-77
2021/10/10 02:33:07;;;;;;;26.40;12.30;;;5.50;99.90;;;;;;5017356;28;20022;-77
2021/10/10 02:35:33;;;;;;;40.40;15.65;;;5.50;99.90;;;;;;5018495;28;20022;-77
2021/10/10 02:37:59;;;;;;;27.42;13.82;;;5.40;99.90;;;;;;5018580;28;20499;-77
2021/10/10 02:40:24;;;;;;;28.92;12.85;;;5.40;99.90;;;;;;5018045;28;20026;-77
2021/10/10 02:42:50;;;;;;;32.70;12.98;;;5.40;99.90;;;;;;5017318;28;20126;-77
2021/10/10 02:45:17;;;;;;;26.45;12.32;;;5.30;99.90;;;;;;5018820;28;20028;-77
2021/10/10 02:47:43;;;;;;;29.00;12.10;;;5.30;99.90;;;;;;5021522;28;20029;-77
2021/10/10 02:50:09;;;;;;;25.95;11.13;;;5.30;99.90;;;;;;5020282;28;20021;-77
2021/10/10 02:52:35;;;;;;;25.80;11.77;;;5.20;99.90;;;;;;5021431;28;20478;-77
2021/10/10 02:55:01;;;;;;;25.90;10.93;;;5.20;99.90;;;;;;5021386;28;20041;-78
2021/10/10 02:57:26;;;;;;;26.42;11.43;;;5.20;99.90;;;;;;5020159;28;20026;-78
2021/10/10 02:59:52;;;;;;;28.33;11.65;;;5.10;99.90;;;;;;5022024;28;20036;-78
2021/10/10 03:02:17;;;;;;;25.58;11.40;;;5.10;99.90;;;;;;5020622;28;20497;-77
2021/10/10 03:04:43;;;;;;;25.27;11.15;;;5.10;99.90;;;;;;5019707;28;20089;-76
2021/10/10 03:07:08;;;;;;;21.85;10.13;;;5.10;99.90;;;;;;5021686;28;20388;-76
2021/10/10 03:09:37;;;;;;;23.50;9.88;;;5.10;99.90;;;;;;5021298;28;20041;-76
2021/10/10 03:12:02;;;;;;;27.08;11.10;;;5.10;99.90;;;;;;5022112;28;20386;-76
2021/10/10 03:14:28;;;;;;;22.55;10.90;;;5.10;99.90;;;;;;5020751;28;20034;-77
2021/10/10 03:16:54;;;;;;;26.60;11.32;;;5.10;99.90;;;;;;5021157;28;20380;-77
2021/10/10 03:19:20;;;;;;;25.50;11.48;;;5.10;99.90;;;;;;5020696;28;20110;-77
2021/10/10 03:21:45;;;;;;;25.55;10.77;;;5.10;99.90;;;;;;5020294;28;20076;-77
2021/10/10 03:24:11;;;;;;;22.77;11.30;;;5.10;99.90;;;;;;5021352;28;20030;-77
2021/10/10 03:26:36;;;;;;;24.30;10.85;;;5.10;99.90;;;;;;5021498;28;20369;-77
2021/10/10 03:29:03;;;;;;;28.25;11.65;;;5.10;99.90;;;;;;5019905;28;20088;-78
2021/10/10 03:31:29;;;;;;;28.73;11.40;;;5.10;99.90;;;;;;5020765;28;20030;-77
2021/10/10 03:33:55;;;;;;;32.78;11.93;;;5.00;99.90;;;;;;5021284;28;20018;-78
2021/10/10 03:36:20;;;;;;;27.85;12.15;;;5.00;99.90;;;;;;5019807;28;20581;-77
2021/10/10 03:38:46;;;;;;;28.67;12.73;;;5.00;99.90;;;;;;5018972;28;20050;-78
2021/10/10 03:41:12;;;;;;;25.05;12.25;;;5.00;99.90;;;;;;5020294;28;20026;-78
2021/10/10 03:43:38;;;;;;;30.65;12.20;;;5.00;99.90;;;;;;5018816;28;20057;-77
2021/10/10 03:46:04;;;;;;;28.88;11.63;;;4.90;99.90;;;;;;5020235;28;20032;-77
2021/10/10 03:48:29;;;;;;;26.60;11.52;;;4.90;99.90;;;;;;5021176;28;20371;-77
2021/10/10 03:50:55;;;;;;;24.42;11.20;;;4.90;99.90;;;;;;5019815;28;20056;-77
2021/10/10 03:53:26;;;;;;;24.98;11.48;;;4.90;99.90;;;;;;5020265;28;20478;-77
2021/10/10 03:55:52;;;;;;;28.98;11.80;;;4.90;99.90;;;;;;5019004;28;20045;-77
2021/10/10 03:58:17;;;;;;;29.98;12.82;;;4.90;99.90;;;;;;5019909;28;20018;-77
2021/10/10 04:00:43;;;;;;;29.13;11.23;;;4.90;99.90;;;;;;5018614;28;20018;-77
2021/10/10 04:03:10;;;;;;;23.75;11.25;;;4.80;99.90;;;;;;5020276;28;20018;-78
2021/10/10 04:05:40;;;;;;;29.90;13.18;;;4.80;99.90;;;;;;5019402;28;20018;-77
2021/10/10 04:08:05;;;;;;;26.55;12.05;;;4.90;99.90;;;;;;5019495;28;20025;-77
2021/10/10 04:10:31;;;;;;;27.75;12.05;;;4.90;99.90;;;;;;5019927;28;20080;-78
2021/10/10 04:12:57;;;;;;;25.48;11.38;;;4.90;99.90;;;;;;5019962;28;20049;-78
2021/10/10 04:15:23;;;;;;;24.55;11.27;;;4.90;99.90;;;;;;5019774;28;20041;-78
2021/10/10 04:17:48;;;;;;;24.80;11.55;;;4.90;99.90;;;;;;5020236;28;20511;-78
2021/10/10 04:20:16;;;;;;;24.63;10.88;;;4.80;99.90;;;;;;5018201;28;20025;-78
2021/10/10 04:22:43;;;;;;;23.15;10.98;;;4.80;99.90;;;;;;5019775;28;20057;-78
2021/10/10 04:25:10;;;;;;;23.50;11.23;;;4.70;99.90;;;;;;5020330;28;20021;-78
2021/10/10 04:27:37;;;;;;;22.55;10.68;;;4.60;99.90;;;;;;5019462;28;20032;-78
2021/10/10 04:30:06;;;;;;;23.98;11.32;;;4.60;99.90;;;;;;5018285;28;20025;-78
2021/10/10 04:32:33;;;;;;;25.25;11.00;;;4.60;99.90;;;;;;5017806;28;20044;-77
2021/10/10 04:34:58;;;;;;;26.20;11.35;;;4.60;99.90;;;;;;5018669;28;20464;-77
2021/10/10 04:37:24;;;;;;;28.67;11.63;;;4.50;99.90;;;;;;5018900;28;20144;-77
2021/10/10 04:39:49;;;;;;;28.10;12.23;;;4.50;99.90;;;;;;5018725;28;20097;-78
2021/10/10 04:42:15;;;;;;;23.98;11.90;;;4.50;99.90;;;;;;5018926;28;20026;-77
2021/10/10 04:44:41;;;;;;;29.42;12.50;;;4.50;99.90;;;;;;5019980;28;20033;-77
2021/10/10 04:47:06;;;;;;;26.90;11.75;;;4.50;99.90;;;;;;5017675;28;20061;-78
2021/10/10 04:49:33;;;;;;;24.95;10.90;;;4.50;99.90;;;;;;5019102;28;20025;-78
2021/10/10 04:51:59;;;;;;;24.23;11.20;;;4.50;99.90;;;;;;5020521;28;20029;-78
2021/10/10 04:54:25;;;;;;;23.30;10.50;;;4.50;99.90;;;;;;5017413;28;20018;-78
2021/10/10 04:56:52;;;;;;;24.45;11.35;;;4.50;99.90;;;;;;5017911;28;20213;-78
2021/10/10 04:59:17;;;;;;;23.52;11.27;;;4.50;99.90;;;;;;5019501;28;20022;-77
2021/10/10 05:01:42;;;;;;;26.05;11.15;;;4.40;99.90;;;;;;5019376;28;20033;-77
2021/10/10 05:04:08;;;;;;;28.65;13.68;;;4.40;99.90;;;;;;5019259;28;20022;-76
2021/10/10 05:06:34;;;;;;;28.63;12.68;;;4.40;99.90;;;;;;5019171;28;20395;-77
2021/10/10 05:08:59;;;;;;;31.23;12.60;;;4.40;99.90;;;;;;5017984;28;20427;-77
2021/10/10 05:11:25;;;;;;;34.17;13.48;;;4.40;99.90;;;;;;5018402;28;20022;-77
2021/10/10 05:13:50;;;;;;;33.58;14.52;;;4.40;99.90;;;;;;5019205;28;20021;-78
2021/10/10 05:16:16;;;;;;;33.47;14.23;;;4.40;99.90;;;;;;5018899;28;20063;-76
2021/10/10 05:18:41;;;;;;;31.70;14.25;;;4.40;99.90;;;;;;5017241;28;20026;-76
2021/10/10 05:21:07;;;;;;;34.17;14.20;;;4.40;99.90;;;;;;5018907;28;20075;-77
2021/10/10 05:23:32;;;;;;;31.33;13.40;;;5.70;99.90;;;;;;5018514;28;20120;-77
2021/10/10 05:26:01;;;;;;;33.65;13.52;;;4.40;99.90;;;;;;5018554;28;20093;-77
2021/10/10 05:28:27;;;;;;;30.92;12.27;;;4.30;99.90;;;;;;5018338;28;20386;-77
2021/10/10 05:30:52;;;;;;;25.42;11.75;;;4.30;99.90;;;;;;5017311;28;20108;-78
2021/10/10 05:33:19;;;;;;;28.38;11.85;;;4.30;99.90;;;;;;5018498;28;20057;-78
2021/10/10 05:35:46;;;;;;;30.60;12.82;;;4.30;99.90;;;;;;5018385;28;20034;-78
2021/10/10 05:38:12;;;;;;;28.90;11.82;;;4.30;99.90;;;;;;5016332;28;20125;-78
2021/10/10 05:40:38;;;;;;;31.42;13.48;;;4.30;99.90;;;;;;5017231;28;20022;-78
2021/10/10 05:43:05;;;;;;;30.52;13.48;;;4.30;99.90;;;;;;5016320;28;20036;-78
2021/10/10 05:45:31;;;;;;;27.63;12.02;;;4.40;99.90;;;;;;5019553;28;20081;-78
2021/10/10 05:47:57;;;;;;;32.10;13.55;;;4.40;99.90;;;;;;5018328;28;20025;-79
2021/10/10 05:50:23;;;;;;;34.60;14.38;;;4.40;99.90;;;;;;5017865;28;20026;-75
2021/10/10 05:52:50;;;;;;;28.38;12.63;;;4.50;99.90;;;;;;5016410;28;20026;-78
2021/10/10 05:55:17;;;;;;;30.15;12.85;;;4.50;99.90;;;;;;5018344;28;20387;-78
2021/10/10 05:57:46;;;;;;;34.83;13.43;;;4.50;99.90;;;;;;5021266;28;20483;-78
2021/10/10 06:00:16;;;;;;;31.25;13.88;;;4.50;99.90;;;;;;5018107;28;20402;-78
2021/10/10 06:02:43;;;;;;;39.80;14.35;;;4.60;99.90;;;;;;5017140;28;20029;-78
2021/10/10 06:05:12;;;;;;;35.55;15.10;;;4.60;99.90;;;;;;5017269;28;20026;-78
2021/10/10 06:07:38;;;;;;;37.38;15.95;;;4.60;99.90;;;;;;5017178;28;20391;-78
2021/10/10 06:10:06;;;;;;;39.63;16.77;;;4.70;99.90;;;;;;5018689;28;20022;-78
2021/10/10 06:12:31;;;;;;;35.55;15.50;;;4.70;99.90;;;;;;5017270;28;20442;-77
2021/10/10 06:15:01;;;;;;;34.45;14.20;;;4.70;99.90;;;;;;5019236;28;20018;-77
2021/10/10 06:17:27;;;;;;;29.65;12.63;;;4.80;99.90;;;;;;5016936;28;20129;-78
2021/10/10 06:19:52;;;;;;;35.45;13.38;;;4.90;99.90;;;;;;5019167;28;20028;-77
2021/10/10 06:22:18;;;;;;;28.55;12.77;;;4.90;99.90;;;;;;5022390;28;20037;-77
2021/10/10 06:24:43;;;;;;;32.08;13.00;;;4.90;99.90;;;;;;5021366;28;20034;-77
2021/10/10 06:27:09;;;;;;;25.27;12.30;;;5.00;99.90;;;;;;5021544;28;20030;-77
2021/10/10 06:29:35;;;;;;;29.33;13.05;;;5.00;99.90;;;;;;5021644;28;20114;-78
2021/10/10 06:32:00;;;;;;;26.25;12.45;;;5.00;99.90;;;;;;5020325;28;20044;-77
2021/10/10 06:34:26;;;;;;;30.15;12.55;;;5.10;99.90;;;;;;5020587;28;20479;-78
2021/10/10 06:36:52;;;;;;;26.05;13.07;;;5.20;99.90;;;;;;5021256;28;20029;-77
2021/10/10 06:39:17;;;;;;;25.92;12.70;;;5.30;99.90;;;;;;5020160;28;20449;-77
2021/10/10 06:41:47;;;;;;;29.88;12.20;;;5.40;99.90;;;;;;5020664;28;20026;-78
2021/10/10 06:44:12;;;;;;;33.22;12.07;;;5.40;99.90;;;;;;5020492;28;20034;-78
2021/10/10 06:46:38;;;;;;;26.23;12.27;;;5.50;99.90;;;;;;5019683;28;20149;-78
2021/10/10 06:49:04;;;;;;;23.77;11.25;;;5.50;99.90;;;;;;5020084;28;20026;-78
2021/10/10 06:51:29;;;;;;;28.02;11.60;;;5.60;99.90;;;;;;5021057;28;20022;-78
2021/10/10 06:53:55;;;;;;;24.60;11.82;;;5.70;99.90;;;;;;5020865;28;20353;-77
2021/10/10 06:56:20;;;;;;;29.75;12.05;;;5.80;99.90;;;;;;5019967;28;20022;-77
2021/10/10 06:58:46;;;;;;;25.48;11.88;;;5.90;99.90;;;;;;5020821;28;20029;-78
2021/10/10 07:01:15;;;;;;;25.98;11.88;;;6.00;99.90;;;;;;5020711;28;20057;-77
2021/10/10 07:03:40;;;;;;;24.52;12.02;;;6.10;99.90;;;;;;5020681;28;20049;-78
2021/10/10 07:06:06;;;;;;;42.03;11.55;;;6.20;99.90;;;;;;5020650;28;20501;-78
2021/10/10 07:08:32;;;;;;;28.00;11.80;;;6.50;99.90;;;;;;5020594;28;20398;-77
2021/10/10 07:10:58;;;;;;;24.17;11.75;;;6.40;99.90;;;;;;5020755;28;20075;-77
2021/10/10 07:13:23;;;;;;;21.42;11.52;;;6.40;99.90;;;;;;5020404;28;20105;-78
2021/10/10 07:15:50;;;;;;;22.60;10.77;;;6.50;99.90;;;;;;5019291;28;20502;-78
2021/10/10 07:18:21;;;;;;;24.05;10.77;;;6.50;99.90;;;;;;5019201;28;20395;-78
2021/10/10 07:21:04;;;;;;;29.05;11.70;;;6.60;99.90;;;;;;5020909;28;20487;-77
2021/10/10 07:26:13;;;;;;;21.52;10.95;;;6.70;99.90;;;;;;5020865;28;20036;-78
2021/10/10 07:28:39;;;;;;;20.20;10.73;;;6.80;99.90;;;;;;5019342;28;20029;-78
2021/10/10 07:31:04;;;;;;;26.98;12.40;;;6.90;99.90;;;;;;5018349;28;20018;-77
2021/10/10 07:33:30;;;;;;;25.13;11.23;;;7.00;99.90;;;;;;5020377;28;20052;-77
2021/10/10 07:35:55;;;;;;;25.73;11.20;;;7.10;99.90;;;;;;5020347;28;20093;-77
2021/10/10 07:38:21;;;;;;;24.48;12.35;;;7.20;99.90;;;;;;5019654;28;20044;-77
2021/10/10 07:40:47;;;;;;;23.95;12.23;;;7.30;99.90;;;;;;5018815;28;20026;-77
2021/10/10 07:43:13;;;;;;;22.60;11.85;;;7.40;99.90;;;;;;5020416;28;20036;-77
2021/10/10 07:45:42;;;;;;;25.00;11.48;;;7.50;99.90;;;;;;5018843;28;20030;-77
2021/10/10 07:48:09;;;;;;;24.42;11.38;;;7.60;99.90;;;;;;5020790;28;20037;-77
2021/10/10 07:50:35;;;;;;;24.10;12.25;;;7.80;99.90;;;;;;5020475;28;20029;-78
2021/10/10 07:53:03;;;;;;;25.95;12.52;;;7.90;99.90;;;;;;5018970;28;20025;-78
2021/10/10 07:55:32;;;;;;;31.83;13.88;;;8.10;99.90;;;;;;5020576;28;20018;-78
2021/10/10 07:57:58;;;;;;;27.23;13.23;;;8.30;99.90;;;;;;5019139;28;20025;-77
2021/10/10 08:00:23;;;;;;;27.55;12.73;;;8.40;99.90;;;;;;5020399;28;20026;-78
2021/10/10 08:02:55;;;;;;;27.65;12.52;;;10.90;99.90;;;;;;5019391;28;20502;-78
2021/10/10 08:05:22;;;;;;;28.67;12.80;;;8.80;99.90;;;;;;5019581;28;20026;-77
2021/10/10 08:07:48;;;;;;;30.60;13.23;;;9.00;99.90;;;;;;5020090;28;20479;-77
2021/10/10 08:10:14;;;;;;;27.40;12.30;;;9.30;99.90;;;;;;5018963;28;20022;-78
2021/10/10 08:12:40;;;;;;;33.28;14.85;;;9.30;99.90;;;;;;5019647;28;20018;-78
2021/10/10 08:15:06;;;;;;;30.35;14.02;;;9.50;99.90;;;;;;5019725;28;20486;-79
2021/10/10 08:17:32;;;;;;;28.27;13.52;;;9.60;99.90;;;;;;5019903;28;20052;-80
2021/10/10 08:19:58;;;;;;;32.22;14.20;;;9.70;99.90;;;;;;5019828;28;20026;-77
2021/10/10 08:22:24;;;;;;;32.25;15.25;;;9.80;99.90;;;;;;5019411;28;20025;-77
2021/10/10 08:24:49;;;;;;;31.48;15.02;;;9.90;99.90;;;;;;5020269;28;20112;-78
2021/10/10 08:27:15;;;;;;;32.90;14.88;;;9.90;99.90;;;;;;5019584;28;20060;-78
2021/10/10 08:29:41;;;;;;;30.60;13.13;;;10.00;99.90;;;;;;5019791;28;20022;-78
2021/10/10 08:32:06;;;;;;;27.77;13.90;;;10.00;99.90;;;;;;5018507;28;20122;-78
2021/10/10 08:34:36;;;;;;;34.63;15.02;;;10.00;99.90;;;;;;5017984;28;20037;-79
2021/10/10 08:37:02;;;;;;;30.02;15.70;;;10.10;99.90;;;;;;5017778;28;20375;-76
2021/10/10 08:39:28;;;;;;;30.20;15.73;;;10.10;99.90;;;;;;5019618;28;20034;-76
2021/10/10 08:41:58;;;;;;;35.17;15.57;;;10.30;99.90;;;;;;5019721;28;20036;-76
2021/10/10 08:44:47;;;;;;;29.25;14.57;;;10.40;99.90;;;;;;5019574;28;20025;-77
2021/10/10 08:47:17;;;;;;;32.50;16.48;;;10.60;99.90;;;;;;5018952;28;20022;-77
2021/10/10 08:49:44;;;;;;;35.42;16.38;;;10.80;99.90;;;;;;5017703;28;20018;-76
2021/10/10 08:52:11;;;;;;;33.03;16.10;;;11.10;99.90;;;;;;5017838;28;20022;-77
2021/10/10 08:54:37;;;;;;;35.85;17.27;;;11.20;99.90;;;;;;5019238;28;20042;-77
2021/10/10 08:57:05;;;;;;;33.53;16.48;;;11.40;99.90;;;;;;5017745;28;20064;-77
2021/10/10 08:59:32;;;;;;;36.07;15.70;;;11.50;99.90;;;;;;5017659;28;20026;-77
2021/10/10 09:02:02;;;;;;;32.58;16.73;;;11.60;99.90;;;;;;5018679;28;20876;-76
2021/10/10 09:04:36;;;;;;;35.08;16.40;;;11.80;99.90;;;;;;5017435;28;20022;-77
2021/10/10 09:07:02;;;;;;;32.55;15.25;;;11.90;99.90;;;;;;5018834;28;20072;-77
2021/10/10 09:09:33;;;;;;;33.50;14.27;;;12.00;99.90;;;;;;5017300;28;20057;-77
2021/10/10 09:12:04;;;;;;;32.70;14.77;;;12.00;99.90;;;;;;5017182;28;20018;-77
2021/10/10 09:14:42;;;;;;;30.92;15.15;;;12.00;99.90;;;;;;5018375;28;20038;-77
2021/10/10 09:17:09;;;;;;;36.03;16.75;;;12.00;99.90;;;;;;5017475;28;20057;-77
2021/10/10 09:19:35;;;;;;;36.63;17.50;;;12.00;99.90;;;;;;5018646;28;20476;-77
2021/10/10 09:22:10;;;;;;;37.20;15.80;;;11.90;99.90;;;;;;5016419;28;20025;-77
2021/10/10 09:24:36;;;;;;;32.47;15.30;;;11.90;99.90;;;;;;5016972;28;20097;-77
2021/10/10 09:27:10;;;;;;;33.05;15.10;;;12.00;99.90;;;;;;5018546;28;20050;-77
2021/10/10 09:29:44;;;;;;;30.88;15.75;;;12.20;99.90;;;;;;5017810;28;20502;-77
2021/10/10 09:32:19;;;;;;;32.45;15.60;;;12.40;99.90;;;;;;5016791;28;20018;-77
2021/10/10 09:34:46;;;;;;;39.13;15.60;;;12.70;99.90;;;;;;5018020;28;20111;-77
2021/10/10 09:39:56;;;;;;;32.80;14.70;;;13.40;99.90;;;;;;5017766;28;20029;-77
2021/10/10 09:42:36;;;;;;;29.45;14.20;;;13.50;99.90;;;;;;5017383;28;20390;-76
2021/10/10 09:45:26;;;;;;;33.47;15.30;;;13.40;99.90;;;;;;5013892;28;20475;-77
2021/10/10 09:48:02;;;;;;;29.20;14.48;;;13.50;99.90;;;;;;5013311;28;20033;-76
2021/10/10 09:50:33;;;;;;;37.83;15.52;;;13.60;99.90;;;;;;5013309;28;20022;-76
2021/10/10 09:53:12;;;;;;;30.88;14.50;;;13.70;99.90;;;;;;5012119;28;20017;-76
2021/10/10 09:55:54;;;;;;;33.85;15.60;;;13.60;99.90;;;;;;5018426;28;20545;-76
2021/10/10 09:58:38;;;;;;;43.55;16.77;;;13.60;99.90;;;;;;5020414;28;20463;-77
2021/10/10 10:01:20;;;;;;;39.08;17.63;;;13.60;99.90;;;;;;5019745;28;20029;-77
2021/10/10 10:04:06;;;;;;;36.47;16.92;;;13.70;99.90;;;;;;5019019;28;20018;-77
2021/10/10 10:06:34;;;;;;;37.83;15.73;;;13.90;99.90;;;;;;5020016;28;20467;-76
2021/10/10 10:09:03;;;;;;;37.33;15.65;;;14.10;99.90;;;;;;5019622;28;20025;-77
2021/10/10 10:11:39;;;;;;;35.80;16.60;;;14.20;99.90;;;;;;5019179;28;20029;-76
2021/10/10 10:14:10;;;;;;;39.50;16.85;;;14.30;99.90;;;;;;5020284;28;20105;-76
2021/10/10 10:16:49;;;;;;;39.42;17.48;;;14.50;99.90;;;;;;5020285;28;20020;-76
2021/10/10 10:19:22;;;;;;;38.00;17.08;;;14.70;99.90;;;;;;5019657;28;20032;-76
2021/10/10 10:21:55;;;;;;;43.35;17.52;;;14.80;99.90;;;;;;5020381;28;20048;-75
2021/10/10 10:24:27;;;;;;;42.42;17.85;;;15.00;99.90;;;;;;5021374;28;20030;-75
2021/10/10 10:26:53;;;;;;;44.72;17.80;;;15.10;99.90;;;;;;5025373;28;20109;-77
2021/10/10 10:29:25;;;;;;;42.90;17.88;;;15.40;99.90;;;;;;5025342;28;20076;-77
2021/10/10 10:31:53;;;;;;;43.75;18.05;;;15.60;99.90;;;;;;5026755;28;20018;-77
2021/10/10 10:34:33;;;;;;;45.63;18.33;;;15.70;99.90;;;;;;5026962;28;20068;-77
2021/10/10 10:37:00;;;;;;;45.03;17.08;;;15.70;99.90;;;;;;5022211;28;20022;-76
2021/10/10 10:39:35;;;;;;;38.42;17.55;;;15.90;99.90;;;;;;5023255;28;20052;-76
2021/10/10 10:42:03;;;;;;;43.08;17.35;;;16.20;99.90;;;;;;5024334;28;20030;-77
2021/10/10 10:44:32;;;;;;;41.42;17.20;;;16.70;99.90;;;;;;5024318;28;20057;-77
2021/10/10 10:47:13;;;;;;;39.25;18.13;;;16.20;99.90;;;;;;5025458;28;20022;-76
2021/10/10 10:50:07;;;;;;;39.33;17.35;;;16.10;99.90;;;;;;5026061;28;20533;-76
2021/10/10 10:52:38;;;;;;;37.92;16.10;;;16.20;99.90;;;;;;5024530;28;20558;-76
2021/10/10 10:55:22;;;;;;;40.80;17.13;;;16.40;99.90;;;;;;5025129;28;20025;-77
2021/10/10 10:57:53;;;;;;;43.97;16.60;;;16.60;99.90;;;;;;5025056;28;20052;-77
2021/10/10 11:00:31;;;;;;;42.10;16.88;;;16.80;99.90;;;;;;5025710;28;20471;-77
2021/10/10 11:03:00;;;;;;;40.67;16.77;;;17.20;99.90;;;;;;5025077;28;20026;-77
2021/10/10 11:05:33;;;;;;;;;;;17.30;99.90;;;;;;5019403;28;20033;-77
2021/10/10 11:08:29;;;;;;;32.53;16.45;;;17.40;99.90;;;;;;5016295;28;20023;-78
2021/10/10 11:11:07;;;;;;;37.22;15.98;;;17.30;99.90;;;;;;5015019;28;20030;-77
2021/10/10 11:13:42;;;;;;;39.13;17.05;;;17.20;99.90;;;;;;5016186;28;20023;-77
2021/10/10 11:16:11;;;;;;;38.25;16.38;;;17.10;99.90;;;;;;5016015;28;20105;-77
2021/10/10 11:18:55;;;;;;;37.63;16.67;;;16.70;99.90;;;;;;5015919;28;20076;-77
2021/10/10 11:21:23;;;;;;;35.15;15.75;;;16.80;99.90;;;;;;5016056;28;20025;-77
2021/10/10 11:23:51;;;;;;;34.83;15.63;;;17.00;99.90;;;;;;5014697;28;20018;-77
2021/10/10 11:26:17;;;;;;;30.23;14.98;;;17.10;99.90;;;;;;5015702;28;20028;-77
2021/10/10 11:28:48;;;;;;;33.17;15.23;;;17.50;99.90;;;;;;5017701;28;20457;-74
2021/10/10 11:31:24;;;;;;;35.35;15.98;;;17.10;99.90;;;;;;5020435;28;20036;-77
2021/10/10 11:33:56;;;;;;;32.20;14.35;;;17.20;99.90;;;;;;5019060;28;20022;-77
2021/10/10 11:36:33;;;;;;;29.42;13.00;;;17.30;99.90;;;;;;5021175;28;20545;-78
2021/10/10 11:39:00;;;;;;;34.47;15.05;;;17.50;99.90;;;;;;5021680;28;20445;-77
2021/10/10 11:41:27;;;;;;;34.85;14.68;;;17.20;99.90;;;;;;5020786;28;20030;-77
2021/10/10 11:44:07;;;;;;;32.47;14.13;;;17.90;99.90;;;;;;5019950;28;20030;-77
2021/10/10 11:46:49;;;;;;;30.48;13.57;;;18.30;99.90;;;;;;5020072;28;20483;-77
2021/10/10 11:49:22;;;;;;;34.58;15.25;;;18.60;99.90;;;;;;5021081;28;20069;-77
2021/10/10 11:51:50;;;;;;;22.38;11.90;;;18.70;99.90;;;;;;5020082;28;20014;-77
2021/10/10 11:54:43;;;;;;;23.20;11.93;;;18.90;99.90;;;;;;5019839;28;20476;-77
2021/10/10 11:57:11;;;;;;;29.92;13.48;;;18.90;99.90;;;;;;5012503;28;20061;-77
2021/10/10 11:59:46;;;;;;;30.02;12.95;;;18.60;99.90;;;;;;5017990;28;20088;-76
2021/10/10 12:02:12;;;;;;;23.45;11.55;;;18.40;99.90;;;;;;5016391;28;20034;-76
2021/10/10 12:04:37;;;;;;;29.65;13.07;;;18.30;99.90;;;;;;5017095;28;20026;-75
2021/10/10 12:07:04;;;;;;;26.95;12.50;;;18.20;99.90;;;;;;5016792;28;20105;-77
2021/10/10 12:09:29;;;;;;;27.08;12.20;;;17.90;99.90;;;;;;5015923;28;20026;-77
2021/10/10 12:12:09;;;;;;;32.92;13.38;;;17.60;99.90;;;;;;5015354;28;20026;-77
2021/10/10 12:14:50;;;;;;;26.65;12.38;;;17.30;99.90;;;;;;5015551;28;20026;-76
2021/10/10 12:17:39;;;;;;;30.17;12.70;;;17.00;99.90;;;;;;5014369;28;20022;-76
2021/10/10 12:20:16;;;;;;;28.98;13.63;;;16.70;99.90;;;;;;5013880;28;20158;-76
2021/10/10 12:22:58;;;;;;;31.38;13.60;;;16.60;99.90;;;;;;5020869;28;20048;-75
2021/10/10 12:25:31;;;;;;;31.20;13.07;;;16.90;99.90;;;;;;5018509;28;20040;-76
2021/10/10 12:28:05;;;;;;;29.80;13.73;;;17.20;99.90;;;;;;5016179;28;20028;-77
2021/10/10 12:30:33;;;;;;;26.15;12.73;;;17.60;99.90;;;;;;5021170;28;20427;-76
2021/10/10 12:33:19;;;;;;;29.83;13.15;;;18.00;99.90;;;;;;5021575;28;20014;-76
2021/10/10 12:35:59;;;;;;;27.15;13.27;;;18.40;99.90;;;;;;5020609;28;20034;-76
2021/10/10 12:38:47;;;;;;;29.88;13.75;;;18.80;99.90;;;;;;5021239;28;20086;-77
2021/10/10 12:41:28;;;;;;;29.67;12.95;;;18.90;99.90;;;;;;5018182;28;20129;-77
2021/10/10 12:43:58;;;;;;;27.40;12.98;;;18.90;99.90;;;;;;5017950;28;20030;-77
2021/10/10 12:46:26;;;;;;;34.83;14.43;;;18.70;99.90;;;;;;5019547;28;20045;-77